Time;durP1;ratioP1;P1;durP2;ratioP2;P2;SDS_P1;SDS_P2;PMS_P1;PMS_P2;Temp;Humidity;BMP_temperature;BMP_pressure;BME280_temperature;BME280_humidity;BME280_pressure;Samples;Min_cycle;Max_cycle;Signal;HPM_P1;HPM_P2
2022/08/19 00:04:38;;;;;;;11.55;7.68;;;;;;;22.64;60.32;101501.91;10555980;28;20036;-77
2022/08/19 00:09:40;;;;;;;14.25;8.30;;;;;;;22.51;60.50;101499.03;10611668;28;20056;-81
2022/08/19 00:14:43;;;;;;;11.93;8.10;;;;;;;22.41;61.36;101504.25;10595318;28;20039;-85
2022/08/19 00:19:45;;;;;;;11.23;7.65;;;;;;;22.32;61.28;101507.09;10614654;28;20054;-81
2022/08/19 00:24:47;;;;;;;11.50;8.45;;;;;;;22.20;62.86;101504.19;10614779;28;20062;-79
2022/08/19 00:29:50;;;;;;;13.60;8.45;;;;;;;22.10;62.48;101504.59;10595197;28;20038;-80
2022/08/19 00:34:53;;;;;;;13.13;8.45;;;;;;;21.99;63.43;101501.34;10611761;28;20498;-79
2022/08/19 00:39:57;;;;;;;15.55;8.10;;;;;;;21.88;63.87;101508.50;10607528;28;20044;-82
2022/08/19 00:45:00;;;;;;;12.20;7.97;;;;;;;21.82;64.01;101510.63;10575914;28;20048;-79
2022/08/19 00:50:03;;;;;;;10.95;7.80;;;;;;;21.79;64.28;101500.13;10580821;28;20040;-79
2022/08/19 00:55:10;;;;;;;22.02;9.20;;;;;;;21.73;64.79;101495.91;10593762;28;20058;-78
2022/08/19 01:00:15;;;;;;;14.23;8.80;;;;;;;21.61;64.42;101496.59;10593869;28;20035;-79
2022/08/19 01:05:21;;;;;;;15.30;9.13;;;;;;;21.47;65.22;101506.34;10593178;28;20047;-79
2022/08/19 01:10:27;;;;;;;10.35;7.13;;;;;;;21.34;65.35;101495.03;10593728;28;20055;-79
2022/08/19 01:15:34;;;;;;;12.53;7.70;;;;;;;21.29;66.28;101503.59;10611256;28;20051;-79
2022/08/19 01:20:37;;;;;;;12.63;7.35;;;;;;;21.19;66.67;101503.94;10608928;28;20050;-79
2022/08/19 01:25:49;;;;;;;11.75;7.78;;;;;;;21.12;66.83;101519.53;10611200;28;20046;-79
2022/08/19 01:30:53;;;;;;;11.43;7.93;;;;;;;21.07;67.15;101520.53;10592883;28;20035;-78
2022/08/19 01:36:07;;;;;;;13.65;8.10;;;;;;;21.06;67.13;101518.91;10567757;28;20039;-77
2022/08/19 01:41:11;;;;;;;15.43;8.38;;;;;;;20.94;67.36;101524.31;10607217;28;20040;-77
2022/08/19 01:46:13;;;;;;;11.95;8.35;;;;;;;20.82;67.87;101529.75;10588962;28;20052;-77
2022/08/19 01:51:16;;;;;;;16.05;8.57;;;;;;;20.68;68.66;101525.16;10606839;28;20525;-77
2022/08/19 01:56:19;;;;;;;12.55;8.13;;;;;;;20.65;68.75;101530.56;10585400;28;20043;-78
2022/08/19 02:01:21;;;;;;;10.63;8.23;;;;;;;20.71;68.59;101538.47;10591591;28;20421;-77
2022/08/19 02:06:23;;;;;;;11.07;7.57;;;;;;;20.62;68.92;101543.19;10605232;28;20048;-78
2022/08/19 02:11:33;;;;;;;13.40;8.13;;;;;;;20.57;69.40;101550.91;10609348;28;20047;-78
2022/08/19 02:16:36;;;;;;;13.60;8.68;;;;;;;20.45;69.58;101551.53;10608557;28;20062;-78
2022/08/19 02:21:43;;;;;;;11.75;6.97;;;;;;;20.39;70.20;101544.47;10604961;28;20035;-77
2022/08/19 02:26:46;;;;;;;13.52;8.20;;;;;;;20.35;70.02;101546.25;10589923;28;20493;-78
2022/08/19 02:31:48;;;;;;;14.63;8.70;;;;;;;20.30;70.05;101549.19;10574494;28;20031;-78
2022/08/19 02:36:51;;;;;;;12.05;7.95;;;;;;;20.24;70.13;101558.84;10607973;28;20058;-78
2022/08/19 02:41:53;;;;;;;11.48;8.20;;;;;;;20.17;70.99;101553.75;10609791;28;20129;-77
2022/08/19 02:46:55;;;;;;;12.38;7.88;;;;;;;20.16;70.62;101560.50;10590804;28;20055;-77
2022/08/19 02:51:58;;;;;;;11.52;8.02;;;;;;;20.16;71.28;101563.28;10609187;28;20039;-78
2022/08/19 02:57:00;;;;;;;12.45;8.13;;;;;;;20.30;71.13;101565.91;10590694;28;20039;-78
2022/08/19 03:02:02;;;;;;;14.25;8.10;;;;;;;20.37;70.97;101569.88;10608002;28;20032;-78
2022/08/19 03:07:04;;;;;;;15.20;8.07;;;;;;;20.51;70.63;101572.56;10591568;28;20043;-77
2022/08/19 03:12:07;;;;;;;13.68;7.75;;;;;;;20.63;70.46;101566.31;10616061;28;20435;-77
2022/08/19 03:17:09;;;;;;;11.70;7.47;;;;;;;20.94;69.32;101578.16;10614878;28;20035;-77
2022/08/19 03:22:11;;;;;;;11.00;6.97;;;;;;;21.15;68.45;101581.09;10596402;28;20036;-78
2022/08/19 03:27:14;;;;;;;10.30;7.70;;;;;;;21.25;68.52;101577.19;10597430;28;20036;-77
2022/08/19 03:32:16;;;;;;;15.05;8.52;;;;;;;21.19;68.04;101575.69;10597218;28;20035;-78
2022/08/19 03:37:18;;;;;;;13.07;7.78;;;;;;;21.41;67.50;101581.09;10593530;28;20048;-75
2022/08/19 03:42:20;;;;;;;13.95;8.23;;;;;;;21.61;67.53;101587.97;10614984;28;20083;-75
2022/08/19 03:47:23;;;;;;;10.75;7.40;;;;;;;21.63;67.60;101589.25;10595793;28;20055;-75
2022/08/19 03:52:25;;;;;;;11.43;7.72;;;;;;;21.79;66.97;101586.75;10577394;28;20052;-75
2022/08/19 03:57:27;;;;;;;15.65;9.00;;;;;;;21.94;65.81;101591.78;10598182;28;20047;-75
2022/08/19 04:02:29;;;;;;;10.15;7.78;;;;;;;22.19;65.32;101603.22;10608362;28;20031;-75
2022/08/19 04:07:40;;;;;;;10.32;7.45;;;;;;;22.36;64.58;101605.91;10613182;28;20035;-76
2022/08/19 04:12:43;;;;;;;10.32;8.00;;;;;;;22.65;64.62;101604.28;10572248;27;20048;-75
2022/08/19 04:17:45;;;;;;;12.32;8.40;;;;;;;22.82;63.57;101618.16;10616878;27;20077;-77
2022/08/19 04:22:48;;;;;;;11.43;7.72;;;;;;;23.10;62.82;101610.88;10597752;28;20047;-74
2022/08/19 04:27:50;;;;;;;13.10;8.45;;;;;;;23.58;61.54;101628.22;10577452;27;20044;-74
2022/08/19 04:32:52;;;;;;;14.23;8.50;;;;;;;23.83;61.44;101615.13;10616398;27;20047;-74
2022/08/19 04:37:54;;;;;;;13.43;9.23;;;;;;;23.94;60.94;101627.50;10610152;27;20052;-75
2022/08/19 04:42:56;;;;;;;15.93;8.52;;;;;;;24.07;59.95;101623.53;10578738;28;20047;-75
2022/08/19 04:48:01;;;;;;;19.25;8.77;;;;;;;24.13;59.17;101627.78;10593319;28;20054;-74
2022/08/19 04:53:04;;;;;;;17.00;9.02;;;;;;;24.28;59.77;101624.25;10595545;28;20505;-74
2022/08/19 04:58:07;;;;;;;15.77;8.55;;;;;;;24.48;58.89;101627.34;10595433;28;20035;-74
2022/08/19 05:03:10;;;;;;;13.20;8.55;;;;;;;24.61;58.08;101634.56;10595493;28;20047;-74
2022/08/19 05:08:13;;;;;;;10.48;7.82;;;;;;;24.85;57.32;101637.34;10607043;28;20039;-75
2022/08/19 05:13:17;;;;;;;12.15;8.50;;;;;;;25.02;57.61;101639.09;10594164;28;20035;-78
2022/08/19 05:23:40;;;;;;;13.25;8.57;;;;;;;25.61;56.05;101648.81;10612425;28;20032;-78
2022/08/19 05:28:43;;;;;;;11.30;8.02;;;;;;;26.06;54.68;101651.28;10580476;28;20331;-79
2022/08/19 05:33:45;;;;;;;13.13;8.77;;;;;;;26.49;52.97;101649.56;10607682;28;20040;-78
2022/08/19 05:38:47;;;;;;;12.90;8.30;;;;;;;26.59;53.23;101661.09;10610975;28;20056;-78
2022/08/19 05:43:50;;;;;;;13.57;8.77;;;;;;;26.83;52.91;101657.22;10576279;28;20039;-78
2022/08/19 05:48:53;;;;;;;12.85;8.20;;;;;;;27.17;51.47;101655.59;10609912;28;20070;-79
2022/08/19 05:53:55;;;;;;;13.55;9.13;;;;;;;27.37;50.81;101664.03;10592650;28;20051;-79
2022/08/19 05:58:58;;;;;;;11.15;8.45;;;;;;;27.74;50.02;101661.59;10609395;28;20405;-78
2022/08/19 06:04:02;;;;;;;12.57;8.13;;;;;;;28.19;48.88;101669.28;10592406;28;20047;-79
2022/08/19 06:09:06;;;;;;;12.73;8.43;;;;;;;28.45;48.19;101658.03;10609556;28;20082;-78
2022/08/19 06:14:11;;;;;;;12.32;7.68;;;;;;;28.48;47.68;101654.47;10608365;28;20052;-79
2022/08/19 06:19:16;;;;;;;11.98;7.90;;;;;;;28.69;47.00;101661.66;10590182;28;20040;-79
2022/08/19 06:24:23;;;;;;;15.05;7.38;;;;;;;29.15;47.47;101651.00;10590463;28;20047;-78
2022/08/19 06:29:27;;;;;;;13.60;8.20;;;;;;;29.29;45.85;101653.22;10609698;28;20044;-78
2022/08/19 06:34:31;;;;;;;10.95;8.50;;;;;;;29.26;46.65;101659.66;10595532;28;20036;-79
2022/08/19 06:39:38;;;;;;;12.98;8.57;;;;;;;29.58;45.29;101658.06;10600265;28;20035;-78
2022/08/19 06:44:41;;;;;;;10.30;7.35;;;;;;;29.73;44.96;101659.03;10615209;28;20444;-79
2022/08/19 06:49:43;;;;;;;11.75;8.05;;;;;;;29.77;44.83;101659.06;10616160;28;20062;-78
2022/08/19 06:54:46;;;;;;;14.13;8.27;;;;;;;29.99;44.05;101677.88;10617496;28;20043;-77
2022/08/19 06:59:52;;;;;;;10.60;7.25;;;;;;;30.01;44.60;101667.78;10618235;27;20484;-78
2022/08/19 07:04:57;;;;;;;11.32;7.78;;;;;;;30.15;44.06;101667.16;10617185;28;20056;-77
2022/08/19 07:10:00;;;;;;;13.40;7.82;;;;;;;30.33;43.83;101680.66;10605405;28;20032;-79
2022/08/19 07:15:08;;;;;;;10.88;7.88;;;;;;;30.27;43.54;101672.53;10615093;28;20051;-79
2022/08/19 07:20:10;;;;;;;12.23;7.72;;;;;;;30.49;43.21;101667.03;10595693;28;20047;-79
2022/08/19 07:25:13;;;;;;;12.90;7.70;;;;;;;30.68;42.29;101680.97;10610119;28;20524;-76
2022/08/19 07:30:16;;;;;;;11.55;7.40;;;;;;;30.71;43.06;101677.31;10611501;28;20066;-76
2022/08/19 07:35:19;;;;;;;12.65;7.75;;;;;;;30.59;42.82;101686.13;10578804;28;20035;-76
2022/08/19 07:40:23;;;;;;;9.45;6.95;;;;;;;30.50;43.22;101677.97;10582880;28;20055;-76
2022/08/19 07:45:25;;;;;;;10.63;7.90;;;;;;;30.68;42.96;101677.31;10615197;28;20524;-77
2022/08/19 07:50:27;;;;;;;13.15;8.30;;;;;;;30.93;42.55;101677.50;10608689;27;20044;-79
2022/08/19 07:55:30;;;;;;;11.20;8.30;;;;;;;31.24;42.23;101691.06;10611407;28;20489;-77
2022/08/19 08:00:36;;;;;;;13.70;8.65;;;;;;;31.15;41.38;101704.75;10590913;28;20066;-76
2022/08/19 08:11:00;;;;;;;10.18;7.72;;;;;;;31.43;41.02;101696.41;10597508;28;20043;-76
2022/08/19 08:16:02;;;;;;;8.70;7.35;;;;;;;31.55;40.98;101706.56;10614226;28;20064;-76
2022/08/19 08:21:05;;;;;;;9.45;7.05;;;;;;;31.47;39.87;101696.44;10613851;28;20046;-76
2022/08/19 08:26:07;;;;;;;11.48;7.20;;;;;;;31.44;39.58;101697.22;10613841;28;20437;-76
2022/08/19 08:31:09;;;;;;;12.02;6.70;;;;;;;31.64;39.34;101689.19;10596778;28;20050;-76
2022/08/19 08:36:13;;;;;;;15.15;7.25;;;;;;;31.75;39.18;101695.72;10614997;28;20047;-76
2022/08/19 08:41:34;;;;;;;10.50;6.03;;;;;;;31.95;39.27;101694.16;10614797;28;20048;-75
2022/08/19 08:46:41;;;;;;;14.40;6.65;;;;;;;32.00;39.46;101701.47;10596357;28;20047;-75
2022/08/19 08:51:51;;;;;;;9.93;6.82;;;;;;;32.09;38.59;101716.88;10595980;28;20066;-75
2022/08/19 08:56:53;;;;;;;8.85;6.15;;;;;;;31.95;38.66;101699.03;10594879;28;20077;-75
2022/08/19 09:01:55;;;;;;;8.82;6.68;;;;;;;31.95;39.09;101714.03;10612738;28;20050;-75
2022/08/19 09:07:26;;;;;;;8.90;6.70;;;;;;;31.88;38.46;101714.00;10613630;28;20497;-75
2022/08/19 09:12:47;;;;;;;11.40;5.93;;;;;;;31.98;38.68;101724.59;10577730;28;20043;-75
2022/08/19 09:17:50;;;;;;;9.75;5.82;;;;;;;32.19;37.80;101709.63;10595246;28;20054;-75
2022/08/19 09:22:52;;;;;;;8.82;6.07;;;;;;;32.00;37.93;101704.31;10613654;28;20059;-75
2022/08/19 09:27:56;;;;;;;8.82;5.88;;;;;;;31.57;38.77;101714.69;10612187;28;20061;-75
2022/08/19 09:32:59;;;;;;;10.40;6.00;;;;;;;31.12;39.48;101697.84;10577561;28;20421;-74
2022/08/19 09:38:01;;;;;;;8.15;5.40;;;;;;;30.77;40.10;101715.44;10594553;28;20062;-75
2022/08/19 09:43:04;;;;;;;10.13;6.25;;;;;;;30.27;40.43;101703.66;10611852;28;20528;-75
2022/08/19 09:48:06;;;;;;;7.53;5.93;;;;;;;29.88;40.73;101697.59;10594195;28;20043;-74
2022/08/19 09:53:09;;;;;;;11.23;6.80;;;;;;;29.66;41.19;101710.66;10611510;27;20051;-75
2022/08/19 09:58:11;;;;;;;12.65;6.30;;;;;;;29.49;40.50;101701.97;10577914;28;20039;-75
2022/08/19 10:03:13;;;;;;;12.27;6.18;;;;;;;29.48;40.26;101703.97;10607160;28;20040;-77
2022/08/19 10:08:18;;;;;;;13.52;6.32;;;;;;;29.38;40.29;101702.63;10609815;28;20055;-76
2022/08/19 10:13:23;;;;;;;9.68;5.85;;;;;;;29.47;39.54;101713.66;10607998;28;20039;-76
2022/08/19 10:18:25;;;;;;;12.02;5.60;;;;;;;29.39;39.29;101697.78;10583481;28;20527;-77
2022/08/19 10:23:29;;;;;;;10.32;5.40;;;;;;;29.48;39.35;101700.34;10587934;28;20039;-78
2022/08/19 10:28:46;;;;;;;8.38;5.45;;;;;;;29.39;39.14;101703.44;10606581;28;20051;-78
2022/08/19 10:33:50;;;;;;;9.00;5.25;;;;;;;29.38;39.21;101699.00;10623928;27;20058;-77
2022/08/19 10:38:56;;;;;;;9.00;5.32;;;;;;;29.37;38.48;101709.50;10623757;28;20038;-77
2022/08/19 10:44:01;;;;;;;6.95;5.15;;;;;;;29.23;38.75;101697.16;10617548;28;20039;-77
2022/08/19 10:49:05;;;;;;;6.25;4.32;;;;;;;29.21;38.49;101705.22;10596902;27;20493;-78
2022/08/19 10:54:07;;;;;;;5.80;4.18;;;;;;;29.07;38.82;101709.47;10604462;28;20039;-78
2022/08/19 10:59:09;;;;;;;7.82;4.97;;;;;;;28.96;38.88;101702.03;10614070;27;20031;-75
2022/08/19 11:04:13;;;;;;;7.72;5.30;;;;;;;28.83;39.38;101688.09;10620251;28;20051;-75
2022/08/19 11:09:20;;;;;;;6.95;4.85;;;;;;;28.84;39.25;101691.75;10617737;28;20050;-74
2022/08/19 11:14:23;;;;;;;6.22;4.82;;;;;;;28.93;39.20;101700.78;10613458;28;20058;-78
2022/08/19 11:19:25;;;;;;;5.65;4.57;;;;;;;28.88;39.65;101694.66;10618332;27;20038;-78
2022/08/19 11:24:28;;;;;;;9.43;5.03;;;;;;;28.88;39.32;101701.13;10586624;27;20040;-79
2022/08/19 11:29:31;;;;;;;8.98;4.97;;;;;;;28.86;38.79;101683.72;10586137;27;20055;-80
2022/08/19 11:34:35;;;;;;;8.93;5.25;;;;;;;28.81;39.51;101684.84;10599938;28;20035;-79
2022/08/19 11:39:37;;;;;;;8.93;5.03;;;;;;;28.74;39.70;101679.06;10617947;28;20043;-79
2022/08/19 11:44:39;;;;;;;11.63;5.00;;;;;;;28.76;39.34;101692.81;10617748;28;20442;-79
2022/08/19 11:49:42;;;;;;;8.82;5.50;;;;;;;28.75;39.93;101677.88;10616886;28;20058;-79
2022/08/19 11:54:44;;;;;;;7.03;4.65;;;;;;;28.77;39.93;101666.19;10556617;28;20048;-79
2022/08/19 11:59:52;;;;;;;6.47;4.97;;;;;;;28.81;39.58;101675.53;10574391;28;20062;-79
2022/08/19 12:04:54;;;;;;;7.10;4.70;;;;;;;28.84;39.49;101674.78;10556165;28;20044;-79
2022/08/19 12:09:56;;;;;;;6.65;5.03;;;;;;;28.82;39.29;101677.19;10595684;28;20429;-79
2022/08/19 12:14:59;;;;;;;8.15;5.55;;;;;;;28.80;39.79;101693.69;10597542;28;20059;-79
2022/08/19 12:20:01;;;;;;;8.07;5.00;;;;;;;28.78;39.43;101673.47;10616374;28;20051;-79
2022/08/19 12:25:05;;;;;;;7.57;4.65;;;;;;;28.80;39.55;101688.03;10612448;28;20044;-79
2022/08/19 12:30:09;;;;;;;7.55;4.85;;;;;;;28.79;39.25;101687.22;10596067;28;20043;-79
2022/08/19 12:35:12;;;;;;;8.95;4.60;;;;;;;28.76;39.89;101673.03;10597527;28;20051;-79
2022/08/19 12:40:17;;;;;;;5.15;3.90;;;;;;;28.76;39.88;101658.91;10613512;28;20051;-79
2022/08/19 12:45:19;;;;;;;7.97;4.88;;;;;;;28.75;39.54;101662.94;10596881;28;20047;-79
2022/08/19 12:50:21;;;;;;;6.68;4.97;;;;;;;28.72;39.39;101675.81;10595747;28;20498;-79
2022/08/19 12:55:24;;;;;;;9.20;5.25;;;;;;;28.70;39.44;101666.09;10614147;28;20055;-81
2022/08/19 13:00:27;;;;;;;6.57;4.55;;;;;;;28.68;39.90;101665.66;10591520;28;20421;-80
2022/08/19 13:05:33;;;;;;;9.38;5.53;;;;;;;28.65;39.93;101657.97;10593118;28;20043;-79
2022/08/19 13:10:36;;;;;;;8.97;5.37;;;;;;;28.64;40.07;101662.00;10596186;28;20054;-80
2022/08/19 13:15:40;;;;;;;10.52;5.05;;;;;;;28.64;39.27;101662.00;10595573;28;20513;-79
2022/08/19 13:20:42;;;;;;;6.10;4.15;;;;;;;28.65;40.00;101663.63;10610309;28;20095;-80
2022/08/19 13:25:44;;;;;;;8.52;4.85;;;;;;;28.67;39.72;101661.22;10577975;28;20537;-80
2022/08/19 13:36:07;;;;;;;5.90;4.38;;;;;;;28.65;40.22;101663.63;10612652;28;20051;-80
2022/08/19 13:41:10;;;;;;;8.77;5.05;;;;;;;28.70;39.87;101660.47;10611871;28;20419;-79
2022/08/19 13:46:13;;;;;;;7.45;4.70;;;;;;;28.75;39.23;101665.78;10611805;28;20052;-80
2022/08/19 13:51:17;;;;;;;7.40;4.97;;;;;;;28.76;39.15;101661.75;10612067;28;20040;-80
2022/08/19 13:56:19;;;;;;;5.95;4.38;;;;;;;28.79;38.20;101655.31;10593635;28;20440;-80
2022/08/19 14:01:22;;;;;;;8.15;5.53;;;;;;;28.76;38.96;101653.28;10611300;28;20047;-80
2022/08/19 14:06:25;;;;;;;11.25;4.82;;;;;;;28.75;38.56;101652.47;10593394;28;20052;-80
2022/08/19 14:11:27;;;;;;;6.95;4.45;;;;;;;28.76;38.88;101664.56;10611123;28;20062;-80
2022/08/19 14:16:30;;;;;;;5.85;4.63;;;;;;;28.73;38.96;101646.38;10611241;28;20047;-80
2022/08/19 14:21:33;;;;;;;6.75;4.72;;;;;;;28.72;38.59;101641.13;10608859;28;20047;-80
2022/08/19 14:26:35;;;;;;;5.30;4.47;;;;;;;28.72;38.85;101653.22;10590562;28;20058;-80
2022/08/19 14:31:40;;;;;;;7.15;5.15;;;;;;;28.65;40.21;101652.31;10579673;28;20044;-79
2022/08/19 14:36:42;;;;;;;8.45;5.25;;;;;;;28.58;39.84;101653.00;10610674;28;20062;-80
2022/08/19 14:41:47;;;;;;;9.65;6.18;;;;;;;28.53;39.62;101656.97;10600700;28;20056;-81
2022/08/19 14:46:50;;;;;;;7.25;4.90;;;;;;;28.49;40.36;101656.09;10574927;28;20051;-80
2022/08/19 14:51:52;;;;;;;7.85;4.80;;;;;;;28.48;39.81;101668.59;10607887;28;20044;-78
2022/08/19 14:56:54;;;;;;;7.28;5.22;;;;;;;28.41;39.51;101671.28;10610911;28;20611;-80
2022/08/19 15:01:56;;;;;;;9.75;5.32;;;;;;;28.40;39.19;101672.47;10591039;28;20533;-80
2022/08/19 15:06:58;;;;;;;9.90;5.70;;;;;;;28.38;38.60;101666.41;10598747;28;20062;-79
2022/08/19 15:12:02;;;;;;;6.30;4.82;;;;;;;28.37;38.95;101658.31;10616083;28;20505;-78
2022/08/19 15:17:04;;;;;;;10.38;5.20;;;;;;;28.35;39.20;101663.53;10609445;28;20070;-77
2022/08/19 15:22:07;;;;;;;8.57;5.60;;;;;;;28.35;39.42;101666.34;10597450;28;20046;-77
2022/08/19 15:27:09;;;;;;;11.23;6.25;;;;;;;28.30;38.99;101673.13;10593778;28;20058;-78
2022/08/19 15:32:11;;;;;;;7.20;5.43;;;;;;;28.26;39.13;101674.25;10621972;27;20035;-78
2022/08/19 15:37:14;;;;;;;5.38;4.85;;;;;;;28.21;38.51;101666.88;10627526;27;20039;-79
2022/08/19 15:42:16;;;;;;;11.75;5.68;;;;;;;28.18;39.09;101667.66;10616926;28;20501;-79
2022/08/19 15:47:19;;;;;;;8.65;4.95;;;;;;;28.15;39.17;101674.88;10607056;28;20060;-79
2022/08/19 15:52:21;;;;;;;7.65;4.93;;;;;;;28.09;38.36;101675.53;10616745;28;20059;-78
2022/08/19 16:07:47;;;;;;;6.72;4.97;;;;;;;27.95;39.42;101678.94;10610605;28;20497;-79
2022/08/19 16:12:49;;;;;;;6.95;4.55;;;;;;;27.88;38.52;101681.59;10581998;28;20052;-79
2022/08/19 16:17:51;;;;;;;5.65;3.92;;;;;;;27.82;38.63;101683.94;10596478;28;20063;-78
2022/08/19 16:22:56;;;;;;;8.00;3.80;;;;;;;27.78;38.60;101677.41;10614028;28;20093;-80
2022/08/19 16:27:59;;;;;;;5.78;3.90;;;;;;;27.76;39.31;101678.94;10567286;28;20066;-80
2022/08/19 16:33:01;;;;;;;5.13;3.88;;;;;;;27.70;39.43;101684.09;10580850;28;20127;-80
2022/08/19 16:38:05;;;;;;;18.00;4.07;;;;;;;27.65;39.69;101678.75;10596616;28;20043;-81
2022/08/19 16:43:09;;;;;;;8.88;4.18;;;;;;;27.56;40.11;101689.41;10613764;28;20055;-77
2022/08/19 16:48:11;;;;;;;5.03;4.22;;;;;;;27.46;40.56;101685.19;10596203;28;20075;-77
2022/08/19 16:53:21;;;;;;;10.48;4.55;;;;;;;27.38;40.22;101691.84;10595155;28;20035;-77
2022/08/19 16:58:25;;;;;;;5.90;3.80;;;;;;;27.28;41.09;101686.81;10613584;28;20440;-77
2022/08/19 17:03:28;;;;;;;6.50;4.30;;;;;;;27.19;41.04;101689.84;10595679;28;20048;-75
2022/08/19 17:08:31;;;;;;;7.53;4.22;;;;;;;27.09;41.14;101684.81;10607692;28;20584;-75
2022/08/19 17:13:33;;;;;;;6.13;4.13;;;;;;;26.99;41.56;101686.16;10585810;27;20047;-75
2022/08/19 17:18:36;;;;;;;10.05;4.47;;;;;;;26.88;42.26;101696.34;10561453;28;20055;-76
2022/08/19 17:23:38;;;;;;;7.05;4.47;;;;;;;26.77;42.52;101700.13;10575328;28;20126;-75
2022/08/19 17:28:41;;;;;;;8.32;5.22;;;;;;;26.65;43.04;101703.84;10585811;28;20362;-75
2022/08/19 17:33:43;;;;;;;9.02;4.43;;;;;;;26.54;43.77;101714.81;10569615;28;20043;-76
2022/08/19 17:38:45;;;;;;;5.97;4.07;;;;;;;26.43;44.82;101717.41;10596741;28;20040;-77
2022/08/19 17:43:48;;;;;;;6.28;4.63;;;;;;;26.32;45.15;101712.63;10610327;28;20039;-76
2022/08/19 17:48:53;;;;;;;5.78;4.32;;;;;;;26.21;45.65;101708.72;10612162;28;20054;-76
2022/08/19 17:53:55;;;;;;;7.57;4.82;;;;;;;26.09;45.30;101716.06;10589292;28;20048;-76
2022/08/19 17:58:57;;;;;;;10.80;4.82;;;;;;;25.98;45.92;101719.75;10599106;28;20036;-76
2022/08/19 18:04:00;;;;;;;6.75;4.97;;;;;;;25.87;46.38;101725.09;10575029;28;20051;-76
2022/08/19 18:09:04;;;;;;;9.20;5.22;;;;;;;25.78;46.54;101716.81;10593258;28;20417;-77
2022/08/19 18:14:07;;;;;;;8.02;4.25;;;;;;;25.72;45.98;101723.88;10591022;28;20047;-76
2022/08/19 18:19:09;;;;;;;8.52;5.80;;;;;;;25.66;47.50;101724.44;10609457;28;20027;-77
2022/08/19 18:24:11;;;;;;;7.72;5.00;;;;;;;25.60;47.38;101734.31;10608463;28;20043;-76
2022/08/19 18:29:14;;;;;;;9.50;5.43;;;;;;;25.54;47.50;101728.97;10610068;28;20039;-77
2022/08/19 18:34:17;;;;;;;8.35;5.05;;;;;;;25.48;47.68;101724.75;10574653;28;20401;-77
2022/08/19 18:50:07;;;;;;;7.43;5.07;;;;;;;25.27;48.29;101724.09;10603566;28;20047;-80
2022/08/19 18:55:14;;;;;;;9.95;5.80;;;;;;;25.20;48.67;101726.72;10598942;28;20062;-77
2022/08/19 19:00:16;;;;;;;11.07;5.50;;;;;;;25.14;49.13;101730.91;10586138;28;20067;-74
2022/08/19 19:05:20;;;;;;;8.30;5.80;;;;;;;25.08;48.73;101726.72;10576369;28;20044;-77
2022/08/19 19:10:23;;;;;;;7.40;6.00;;;;;;;25.03;48.85;101724.16;10615071;27;20043;-76
2022/08/19 19:15:25;;;;;;;7.80;5.63;;;;;;;24.96;49.52;101725.53;10598608;28;20044;-77
2022/08/19 19:20:29;;;;;;;13.18;6.18;;;;;;;24.90;50.22;101735.38;10588502;28;20038;-76
2022/08/19 19:25:33;;;;;;;9.38;6.47;;;;;;;24.85;49.56;101746.84;10617632;28;20047;-76
2022/08/19 19:30:35;;;;;;;8.02;6.53;;;;;;;24.78;50.58;101740.97;10597571;27;20063;-75
2022/08/19 19:35:39;;;;;;;14.48;6.93;;;;;;;24.71;51.18;101739.94;10612582;27;20047;-75
2022/08/19 19:40:42;;;;;;;10.23;6.07;;;;;;;24.63;50.74;101742.50;10613498;27;20044;-75
2022/08/19 19:45:45;;;;;;;10.32;7.13;;;;;;;24.53;51.93;101742.97;10613707;28;20039;-75
2022/08/19 19:50:47;;;;;;;10.40;6.80;;;;;;;24.43;51.87;101751.00;10607003;28;20061;-75
2022/08/19 19:55:50;;;;;;;11.07;6.60;;;;;;;24.32;52.38;101742.25;10612574;28;20039;-75
2022/08/19 20:00:52;;;;;;;9.02;5.82;;;;;;;24.21;52.50;101749.44;10611192;28;20051;-75
2022/08/19 20:05:57;;;;;;;20.35;7.97;;;;;;;24.10;53.41;101753.81;10593479;28;20063;-75
2022/08/19 20:11:01;;;;;;;15.65;7.15;;;;;;;23.98;54.03;101758.25;10611830;28;20044;-75
2022/08/19 20:16:03;;;;;;;8.85;5.95;;;;;;;23.88;53.74;101763.47;10611850;28;20051;-75
2022/08/19 20:21:05;;;;;;;10.43;6.03;;;;;;;23.83;53.83;101766.47;10592038;28;20391;-75
2022/08/19 20:26:08;;;;;;;9.80;5.82;;;;;;;23.75;54.14;101776.59;10610878;28;20046;-74
2022/08/19 20:31:10;;;;;;;10.77;6.15;;;;;;;23.70;54.09;101777.63;10611749;28;20039;-76
2022/08/19 20:36:12;;;;;;;8.38;5.25;;;;;;;23.62;54.05;101775.72;10597959;27;20063;-72
2022/08/19 20:41:16;;;;;;;8.45;5.28;;;;;;;23.60;53.59;101780.81;10657533;27;20678;-73
2022/08/19 20:46:18;;;;;;;6.55;4.50;;;;;;;23.57;53.48;101787.13;10599003;28;20035;-73
2022/08/19 20:51:20;;;;;;;7.18;5.22;;;;;;;23.56;53.64;101790.25;10588266;28;20056;-73
2022/08/19 20:56:23;;;;;;;7.10;4.22;;;;;;;23.58;53.63;101779.53;10554054;28;20051;-73
2022/08/19 21:01:25;;;;;;;6.95;4.93;;;;;;;23.60;52.60;101785.63;10600660;28;20047;-71
2022/08/19 21:06:27;;;;;;;9.57;5.15;;;;;;;23.58;52.69;101794.38;10613627;28;20043;-73
2022/08/19 21:11:31;;;;;;;6.60;4.63;;;;;;;23.53;53.01;101793.72;10592479;28;20062;-73
2022/08/19 21:16:33;;;;;;;11.15;4.95;;;;;;;23.48;53.26;101791.13;10582494;28;20061;-73
2022/08/19 21:21:35;;;;;;;9.60;5.28;;;;;;;23.47;52.86;101793.13;10570842;28;20398;-72
2022/08/19 21:26:37;;;;;;;8.80;4.80;;;;;;;23.42;52.32;101782.09;10537454;28;20498;-73
2022/08/19 21:31:39;;;;;;;8.10;4.90;;;;;;;23.37;52.76;101782.31;10608303;28;20413;-73
2022/08/19 21:36:41;;;;;;;9.63;4.63;;;;;;;23.33;52.76;101789.75;10591760;28;20039;-72
2022/08/19 21:41:44;;;;;;;7.45;4.65;;;;;;;23.32;53.19;101788.94;10591758;28;20507;-72
2022/08/19 21:46:46;;;;;;;10.82;5.55;;;;;;;23.19;53.52;101800.38;10612421;28;20035;-73
2022/08/19 21:51:48;;;;;;;5.57;4.90;;;;;;;23.06;54.58;101800.28;10581056;28;20458;-73
2022/08/19 21:56:50;;;;;;;9.18;4.70;;;;;;;22.88;54.92;101797.91;10573218;28;20457;-73
2022/08/19 22:01:53;;;;;;;6.35;4.30;;;;;;;22.69;55.54;101806.69;10590638;28;20040;-73
2022/08/19 22:06:55;;;;;;;5.15;4.32;;;;;;;22.53;55.30;101809.19;10560706;28;20039;-72
2022/08/19 22:11:58;;;;;;;6.28;4.32;;;;;;;22.42;56.54;101808.75;10559650;28;20048;-72
2022/08/19 22:17:01;;;;;;;10.98;5.13;;;;;;;22.35;56.58;101804.81;10566445;28;20059;-72
2022/08/19 22:22:03;;;;;;;8.88;5.43;;;;;;;22.26;56.15;101805.66;10563344;28;20422;-72
2022/08/19 22:27:05;;;;;;;6.43;4.75;;;;;;;22.22;56.44;101809.47;10570171;28;20379;-72
2022/08/19 22:32:09;;;;;;;7.13;4.20;;;;;;;22.17;56.34;101815.22;10572606;28;20141;-72
2022/08/19 22:37:11;;;;;;;9.88;4.72;;;;;;;22.16;56.49;101816.38;10574099;28;20051;-72
2022/08/19 22:42:17;;;;;;;8.75;4.00;;;;;;;22.14;56.41;101824.25;10597721;28;20043;-72
2022/08/19 22:47:19;;;;;;;7.85;4.57;;;;;;;22.20;55.92;101836.91;10591678;28;20043;-72
2022/08/19 22:52:22;;;;;;;8.55;4.00;;;;;;;22.20;56.02;101829.34;10610998;28;20035;-72
2022/08/19 22:57:24;;;;;;;7.07;4.10;;;;;;;22.18;55.24;101830.81;10610711;28;20048;-72
2022/08/19 23:02:32;;;;;;;7.07;3.95;;;;;;;22.14;56.08;101835.44;10591080;28;20050;-72
2022/08/19 23:07:35;;;;;;;8.07;5.05;;;;;;;22.10;55.91;101840.06;10610805;28;20039;-72
2022/08/19 23:12:41;;;;;;;9.23;4.28;;;;;;;22.07;56.03;101837.94;10592349;28;20486;-70
2022/08/19 23:17:44;;;;;;;4.17;3.33;;;;;;;22.04;55.49;101835.75;10609779;28;20055;-71
2022/08/19 23:22:48;;;;;;;4.97;3.03;;;;;;;21.97;55.18;101839.03;10610651;28;20454;-71
2022/08/19 23:33:23;;;;;;;6.07;3.65;;;;;;;21.94;55.53;101848.91;10615781;28;20044;-70
2022/08/19 23:38:27;;;;;;;6.28;3.92;;;;;;;21.87;55.80;101843.00;10617131;28;20032;-71
2022/08/19 23:43:30;;;;;;;5.45;3.67;;;;;;;21.79;56.18;101845.78;10599425;28;20047;-71
2022/08/19 23:48:34;;;;;;;4.93;3.65;;;;;;;21.76;55.40;101841.66;10601891;28;20054;-71
2022/08/19 23:53:37;;;;;;;5.13;3.97;;;;;;;21.72;56.11;101839.88;10556545;28;20045;-71